FIN1DH EFHK-EDDM
Flight info
| Callsign | FIN1DH |
|---|---|
| Flight time | 2h 25m |
| Altitude | 38000 |
| Route | VALOX DCT DANKA DCT ROSAX DCT LEMSI DCT PIMEX DCT ANFEV DCT PENOR DCT GOVEN DCT KOBUS DCT MAREM DCT BALTU DCT VESUB T106 TUSTO T108 LANDU LANDU2A |
| Aircraft | A321/M-SDE3FGHIRWY/LB1 |
Departure
| Time | 2026-05-06 07:32 |
|---|---|
| Airport | Helsinki Vantaa Airport (EFHK) |
Arrival
| Time | 2026-05-06 09:57 |
|---|---|
| Airport | Munich Airport (EDDM) |
| Time | Latitude | Longitude | Altitude | Speed | Heading |
|---|---|---|---|---|---|
| 2026-05-06 07:11 | 60.31875 | 24.96537 | 189 ft | 0 kts | 137° |
| 2026-05-06 07:24 | 60.31877 | 24.96534 | 190 ft | 1 kts | 137° |
| 2026-05-06 07:24 | 60.31887 | 24.96514 | 190 ft | 2 kts | 137° |
| 2026-05-06 07:24 | 60.31901 | 24.96498 | 190 ft | 2 kts | 165° |
| 2026-05-06 07:25 | 60.31916 | 24.96494 | 190 ft | 2 kts | 184° |
| 2026-05-06 07:25 | 60.31930 | 24.96500 | 190 ft | 2 kts | 204° |
| 2026-05-06 07:25 | 60.31942 | 24.96515 | 190 ft | 1 kts | 223° |
| 2026-05-06 07:25 | 60.31947 | 24.96524 | 190 ft | 1 kts | 229° |
| 2026-05-06 07:26 | 60.31948 | 24.96527 | 190 ft | 0 kts | 227° |
| 2026-05-06 07:27 | 60.31929 | 24.96487 | 189 ft | 9 kts | 227° |
| 2026-05-06 07:28 | 60.31872 | 24.96357 | 189 ft | 13 kts | 234° |
| 2026-05-06 07:28 | 60.31859 | 24.96178 | 189 ft | 13 kts | 290° |
| 2026-05-06 07:28 | 60.31996 | 24.95900 | 189 ft | 14 kts | 317° |
| 2026-05-06 07:29 | 60.32072 | 24.95760 | 189 ft | 14 kts | 318° |
| 2026-05-06 07:29 | 60.32149 | 24.95619 | 189 ft | 15 kts | 317° |
| 2026-05-06 07:29 | 60.32227 | 24.95474 | 189 ft | 15 kts | 317° |
| 2026-05-06 07:29 | 60.32307 | 24.95327 | 189 ft | 15 kts | 319° |
| 2026-05-06 07:30 | 60.32424 | 24.95218 | 189 ft | 23 kts | 342° |
| 2026-05-06 07:30 | 60.32591 | 24.95109 | 189 ft | 24 kts | 342° |
| 2026-05-06 07:30 | 60.32752 | 24.95005 | 189 ft | 23 kts | 342° |
| 2026-05-06 07:30 | 60.32903 | 24.94886 | 189 ft | 22 kts | 323° |
| 2026-05-06 07:31 | 60.33019 | 24.94679 | 189 ft | 22 kts | 317° |
| 2026-05-06 07:31 | 60.33104 | 24.94523 | 189 ft | 13 kts | 313° |
| 2026-05-06 07:31 | 60.33098 | 24.94356 | 189 ft | 13 kts | 232° |
| 2026-05-06 07:31 | 60.33013 | 24.94165 | 189 ft | 37 kts | 227° |
| 2026-05-06 07:32 | 60.32670 | 24.93409 | 189 ft | 106 kts | 227° |
| 2026-05-06 07:32 | 60.32026 | 24.91996 | 195 ft | 162 kts | 227° |
| 2026-05-06 07:32 | 60.31240 | 24.90313 | 780 ft | 164 kts | 229° |
| 2026-05-06 07:32 | 60.30483 | 24.88663 | 1471 ft | 163 kts | 234° |
| 2026-05-06 07:33 | 60.29852 | 24.86792 | 2047 ft | 166 kts | 239° |
| 2026-05-06 07:33 | 60.29215 | 24.84716 | 2435 ft | 181 kts | 241° |
| 2026-05-06 07:33 | 60.28522 | 24.82493 | 2828 ft | 197 kts | 239° |
| 2026-05-06 07:33 | 60.27747 | 24.80083 | 3226 ft | 213 kts | 239° |
| 2026-05-06 07:34 | 60.26947 | 24.77380 | 3531 ft | 236 kts | 245° |
| 2026-05-06 07:34 | 60.26244 | 24.74278 | 3998 ft | 251 kts | 251° |
| 2026-05-06 07:34 | 60.25589 | 24.70972 | 4742 ft | 257 kts | 251° |
| 2026-05-06 07:34 | 60.24934 | 24.67627 | 5552 ft | 258 kts | 252° |
| 2026-05-06 07:35 | 60.24251 | 24.64332 | 6267 ft | 262 kts | 244° |
| 2026-05-06 07:35 | 60.23054 | 24.61543 | 6943 ft | 272 kts | 219° |
| 2026-05-06 07:35 | 60.21373 | 24.59696 | 7698 ft | 276 kts | 209° |
| 2026-05-06 07:35 | 60.19642 | 24.58072 | 8413 ft | 279 kts | 209° |
| 2026-05-06 07:36 | 60.17886 | 24.56423 | 9129 ft | 281 kts | 209° |
| 2026-05-06 07:36 | 60.16125 | 24.54751 | 9833 ft | 283 kts | 210° |
| 2026-05-06 07:36 | 60.14347 | 24.53049 | 10456 ft | 288 kts | 210° |
| 2026-05-06 07:36 | 60.12503 | 24.51270 | 10790 ft | 303 kts | 210° |
| 2026-05-06 07:37 | 60.10571 | 24.49412 | 11146 ft | 318 kts | 210° |
| 2026-05-06 07:37 | 60.08582 | 24.47502 | 11735 ft | 321 kts | 210° |
| 2026-05-06 07:37 | 60.06552 | 24.45560 | 12412 ft | 323 kts | 210° |
| 2026-05-06 07:37 | 60.04527 | 24.43632 | 13065 ft | 324 kts | 210° |
| 2026-05-06 07:38 | 60.02488 | 24.41690 | 13725 ft | 326 kts | 210° |
| 2026-05-06 07:38 | 60.00449 | 24.39748 | 14385 ft | 327 kts | 211° |
| 2026-05-06 07:38 | 59.98389 | 24.37781 | 15038 ft | 328 kts | 211° |
| 2026-05-06 07:38 | 59.96314 | 24.35800 | 15647 ft | 329 kts | 212° |
| 2026-05-06 07:39 | 59.94241 | 24.33826 | 16269 ft | 330 kts | 211° |
| 2026-05-06 07:39 | 59.92176 | 24.31858 | 16885 ft | 330 kts | 212° |
| 2026-05-06 07:39 | 59.90080 | 24.29866 | 17494 ft | 329 kts | 212° |
| 2026-05-06 07:39 | 59.88005 | 24.27894 | 18099 ft | 329 kts | 213° |
| 2026-05-06 07:40 | 59.85950 | 24.25954 | 18679 ft | 329 kts | 213° |
| 2026-05-06 07:40 | 59.83906 | 24.24020 | 19240 ft | 328 kts | 213° |
| 2026-05-06 07:40 | 59.81840 | 24.22064 | 19792 ft | 328 kts | 214° |
| 2026-05-06 07:40 | 59.79785 | 24.20132 | 20353 ft | 327 kts | 214° |
| 2026-05-06 07:41 | 59.77731 | 24.18182 | 20864 ft | 329 kts | 214° |
| 2026-05-06 07:41 | 59.75667 | 24.16201 | 21267 ft | 332 kts | 215° |
| 2026-05-06 07:41 | 59.73603 | 24.13976 | 21540 ft | 338 kts | 218° |
| 2026-05-06 07:41 | 59.71585 | 24.11509 | 21984 ft | 337 kts | 220° |
| 2026-05-06 07:42 | 59.69663 | 24.08869 | 22435 ft | 337 kts | 223° |
| 2026-05-06 07:42 | 59.67735 | 24.06149 | 22848 ft | 340 kts | 222° |
| 2026-05-06 07:42 | 59.65786 | 24.03419 | 23258 ft | 342 kts | 222° |
| 2026-05-06 07:42 | 59.63833 | 24.00680 | 23750 ft | 341 kts | 222° |
| 2026-05-06 07:43 | 59.61903 | 23.97968 | 24178 ft | 342 kts | 222° |
| 2026-05-06 07:43 | 59.59951 | 23.95223 | 24559 ft | 344 kts | 222° |
| 2026-05-06 07:43 | 59.57971 | 23.92435 | 24944 ft | 346 kts | 222° |
| 2026-05-06 07:43 | 59.56027 | 23.89702 | 25334 ft | 348 kts | 222° |
| 2026-05-06 07:44 | 59.54018 | 23.86882 | 25722 ft | 350 kts | 222° |
| 2026-05-06 07:44 | 59.52012 | 23.84071 | 26096 ft | 352 kts | 222° |
| 2026-05-06 07:44 | 59.50019 | 23.81204 | 26462 ft | 353 kts | 224° |
| 2026-05-06 07:44 | 59.48119 | 23.78136 | 26813 ft | 353 kts | 227° |
| 2026-05-06 07:45 | 59.46306 | 23.74849 | 27152 ft | 353 kts | 230° |
| 2026-05-06 07:45 | 59.44590 | 23.71351 | 27484 ft | 354 kts | 232° |
| 2026-05-06 07:45 | 59.42928 | 23.67797 | 27812 ft | 356 kts | 232° |
| 2026-05-06 07:45 | 59.41211 | 23.64149 | 28025 ft | 358 kts | 232° |
| 2026-05-06 07:46 | 59.37817 | 23.56945 | 28323 ft | 363 kts | 232° |
| 2026-05-06 07:46 | 59.36117 | 23.53335 | 28687 ft | 363 kts | 232° |
| 2026-05-06 07:46 | 59.34390 | 23.49673 | 28955 ft | 364 kts | 232° |
| 2026-05-06 07:47 | 59.32689 | 23.46069 | 29187 ft | 367 kts | 232° |
| 2026-05-06 07:47 | 59.30926 | 23.42338 | 29428 ft | 369 kts | 232° |
| 2026-05-06 07:47 | 59.29199 | 23.38688 | 29668 ft | 371 kts | 232° |
| 2026-05-06 07:47 | 59.27444 | 23.34985 | 29948 ft | 373 kts | 231° |
| 2026-05-06 07:48 | 59.25662 | 23.31234 | 30239 ft | 374 kts | 231° |
| 2026-05-06 07:48 | 59.23912 | 23.27553 | 30516 ft | 376 kts | 231° |
| 2026-05-06 07:48 | 59.22124 | 23.23795 | 30833 ft | 377 kts | 231° |
| 2026-05-06 07:48 | 59.20331 | 23.20037 | 31189 ft | 376 kts | 231° |
| 2026-05-06 07:49 | 59.18562 | 23.16334 | 31531 ft | 375 kts | 231° |
| 2026-05-06 07:49 | 59.16787 | 23.12626 | 31852 ft | 374 kts | 231° |
| 2026-05-06 07:49 | 59.15028 | 23.08954 | 32158 ft | 373 kts | 231° |
| 2026-05-06 07:49 | 59.13247 | 23.05243 | 32450 ft | 373 kts | 231° |
| 2026-05-06 07:50 | 59.11489 | 23.01588 | 32742 ft | 373 kts | 231° |
| 2026-05-06 07:50 | 59.09723 | 22.97922 | 33039 ft | 373 kts | 231° |
| 2026-05-06 07:50 | 59.07919 | 22.94180 | 33333 ft | 372 kts | 231° |
| 2026-05-06 07:50 | 59.06158 | 22.90533 | 33603 ft | 372 kts | 231° |
| 2026-05-06 07:51 | 59.04386 | 22.86873 | 33866 ft | 372 kts | 231° |
| 2026-05-06 07:51 | 59.02615 | 22.83220 | 34120 ft | 372 kts | 231° |
| 2026-05-06 07:51 | 59.00834 | 22.79551 | 34370 ft | 372 kts | 231° |
| 2026-05-06 07:51 | 58.99054 | 22.75894 | 34614 ft | 372 kts | 231° |
| 2026-05-06 07:52 | 58.97281 | 22.72256 | 34854 ft | 372 kts | 231° |
| 2026-05-06 07:52 | 58.95511 | 22.68630 | 35093 ft | 372 kts | 231° |
| 2026-05-06 07:52 | 58.93729 | 22.64986 | 35313 ft | 372 kts | 231° |
| 2026-05-06 07:52 | 58.91972 | 22.61394 | 35478 ft | 372 kts | 231° |
| 2026-05-06 07:53 | 58.90175 | 22.57730 | 35626 ft | 372 kts | 231° |
| 2026-05-06 07:53 | 58.88412 | 22.54137 | 35767 ft | 373 kts | 231° |
| 2026-05-06 07:53 | 58.86625 | 22.50502 | 35899 ft | 373 kts | 231° |
| 2026-05-06 07:53 | 58.84839 | 22.46876 | 36011 ft | 374 kts | 231° |
| 2026-05-06 07:54 | 58.83034 | 22.43217 | 36119 ft | 375 kts | 231° |
| 2026-05-06 07:54 | 58.81239 | 22.39582 | 36213 ft | 376 kts | 231° |
| 2026-05-06 07:54 | 58.77635 | 22.32307 | 36394 ft | 378 kts | 230° |
| 2026-05-06 07:55 | 58.73999 | 22.24989 | 36576 ft | 381 kts | 230° |
| 2026-05-06 07:55 | 58.70345 | 22.17657 | 36753 ft | 384 kts | 230° |
| 2026-05-06 07:56 | 58.66637 | 22.10243 | 36924 ft | 386 kts | 230° |
| 2026-05-06 07:56 | 58.62922 | 22.02841 | 37087 ft | 389 kts | 230° |
| 2026-05-06 07:57 | 58.59159 | 21.95367 | 37247 ft | 391 kts | 230° |
| 2026-05-06 07:57 | 58.55373 | 21.87874 | 37397 ft | 394 kts | 230° |
| 2026-05-06 07:58 | 58.51565 | 21.80360 | 37554 ft | 395 kts | 230° |
| 2026-05-06 07:58 | 58.47742 | 21.72841 | 37712 ft | 397 kts | 230° |
| 2026-05-06 07:59 | 58.43895 | 21.65299 | 37850 ft | 399 kts | 230° |
| 2026-05-06 07:59 | 58.40052 | 21.57790 | 37966 ft | 401 kts | 230° |
| 2026-05-06 08:00 | 58.36162 | 21.50214 | 38009 ft | 402 kts | 230° |
| 2026-05-06 08:00 | 58.32225 | 21.42573 | 38010 ft | 403 kts | 230° |
| 2026-05-06 08:01 | 58.28312 | 21.35003 | 38006 ft | 404 kts | 230° |
| 2026-05-06 08:01 | 58.24378 | 21.27422 | 38003 ft | 404 kts | 229° |
| 2026-05-06 08:02 | 58.20420 | 21.19859 | 38001 ft | 405 kts | 227° |
| 2026-05-06 08:02 | 58.16329 | 21.12539 | 38001 ft | 405 kts | 227° |
| 2026-05-06 08:03 | 58.12203 | 21.05228 | 38003 ft | 405 kts | 227° |
| 2026-05-06 08:03 | 58.08087 | 20.97934 | 38006 ft | 405 kts | 227° |
| 2026-05-06 08:04 | 58.03958 | 20.90631 | 38008 ft | 405 kts | 227° |
| 2026-05-06 08:04 | 57.99845 | 20.83374 | 38010 ft | 405 kts | 227° |
| 2026-05-06 08:05 | 57.95734 | 20.76144 | 38010 ft | 405 kts | 227° |
| 2026-05-06 08:05 | 57.91628 | 20.68945 | 38048 ft | 405 kts | 227° |
| 2026-05-06 08:06 | 57.87490 | 20.61717 | 38067 ft | 404 kts | 227° |
| 2026-05-06 08:06 | 57.83403 | 20.54600 | 38033 ft | 404 kts | 227° |
| 2026-05-06 08:07 | 57.79274 | 20.47431 | 38013 ft | 404 kts | 227° |
| 2026-05-06 08:07 | 57.75156 | 20.40304 | 38007 ft | 404 kts | 227° |
| 2026-05-06 08:08 | 57.71021 | 20.33172 | 38006 ft | 403 kts | 226° |
| 2026-05-06 08:08 | 57.66914 | 20.26110 | 38004 ft | 403 kts | 226° |
| 2026-05-06 08:09 | 57.62778 | 20.19019 | 38004 ft | 403 kts | 226° |
| 2026-05-06 08:09 | 57.58636 | 20.11941 | 38006 ft | 403 kts | 226° |
| 2026-05-06 08:10 | 57.54507 | 20.04910 | 38006 ft | 403 kts | 226° |
| 2026-05-06 08:10 | 57.50404 | 19.97947 | 38007 ft | 403 kts | 226° |
| 2026-05-06 08:11 | 57.46257 | 19.90931 | 38007 ft | 403 kts | 226° |
| 2026-05-06 08:11 | 57.42143 | 19.83993 | 38012 ft | 403 kts | 226° |
| 2026-05-06 08:12 | 57.38001 | 19.77028 | 38015 ft | 402 kts | 226° |
| 2026-05-06 08:12 | 57.33881 | 19.70121 | 38018 ft | 402 kts | 226° |
| 2026-05-06 08:13 | 57.29755 | 19.63225 | 38020 ft | 401 kts | 226° |
| 2026-05-06 08:13 | 57.25629 | 19.56352 | 38022 ft | 401 kts | 226° |
| 2026-05-06 08:14 | 57.21489 | 19.49480 | 38023 ft | 401 kts | 226° |
| 2026-05-06 08:14 | 57.17370 | 19.42662 | 38022 ft | 400 kts | 226° |
| 2026-05-06 08:15 | 57.13223 | 19.35821 | 38022 ft | 400 kts | 226° |
| 2026-05-06 08:15 | 57.09098 | 19.29039 | 38020 ft | 400 kts | 226° |
| 2026-05-06 08:16 | 57.04974 | 19.22275 | 38019 ft | 399 kts | 226° |
| 2026-05-06 08:16 | 57.00832 | 19.15504 | 38017 ft | 399 kts | 226° |
| 2026-05-06 08:17 | 56.96688 | 19.08751 | 38015 ft | 398 kts | 225° |
| 2026-05-06 08:17 | 56.92560 | 19.02046 | 38013 ft | 398 kts | 225° |
| 2026-05-06 08:18 | 56.88449 | 18.95389 | 38012 ft | 398 kts | 225° |
| 2026-05-06 08:18 | 56.84312 | 18.88710 | 38010 ft | 398 kts | 226° |
| 2026-05-06 08:19 | 56.80166 | 18.82036 | 38009 ft | 398 kts | 225° |
| 2026-05-06 08:19 | 56.76000 | 18.75352 | 38008 ft | 398 kts | 226° |
| 2026-05-06 08:20 | 56.71862 | 18.68731 | 38007 ft | 397 kts | 226° |
| 2026-05-06 08:20 | 56.67692 | 18.62079 | 38005 ft | 397 kts | 226° |
| 2026-05-06 08:21 | 56.63531 | 18.55466 | 38004 ft | 397 kts | 226° |
| 2026-05-06 08:21 | 56.59370 | 18.48857 | 38004 ft | 396 kts | 225° |
| 2026-05-06 08:22 | 56.55231 | 18.42315 | 38000 ft | 396 kts | 226° |
| 2026-05-06 08:22 | 56.51044 | 18.35729 | 37997 ft | 395 kts | 226° |
| 2026-05-06 08:23 | 56.46872 | 18.29154 | 37996 ft | 396 kts | 225° |
| 2026-05-06 08:23 | 56.42681 | 18.22583 | 37990 ft | 395 kts | 224° |
| 2026-05-06 08:24 | 56.38504 | 18.16080 | 37986 ft | 395 kts | 225° |
| 2026-05-06 08:24 | 56.34355 | 18.09629 | 37983 ft | 394 kts | 224° |
| 2026-05-06 08:25 | 56.30178 | 18.03162 | 37978 ft | 394 kts | 225° |
| 2026-05-06 08:25 | 56.26046 | 17.96758 | 37974 ft | 393 kts | 225° |
| 2026-05-06 08:26 | 56.21895 | 17.90340 | 37968 ft | 393 kts | 224° |
| 2026-05-06 08:26 | 56.17744 | 17.83972 | 37961 ft | 392 kts | 225° |
| 2026-05-06 08:27 | 56.13614 | 17.77635 | 37960 ft | 392 kts | 225° |
| 2026-05-06 08:27 | 56.09475 | 17.71311 | 37956 ft | 392 kts | 225° |
| 2026-05-06 08:28 | 56.05316 | 17.64955 | 37950 ft | 392 kts | 225° |
| 2026-05-06 08:28 | 56.01164 | 17.58641 | 37943 ft | 392 kts | 225° |
| 2026-05-06 08:29 | 55.97024 | 17.52367 | 37944 ft | 392 kts | 225° |
| 2026-05-06 08:29 | 55.92867 | 17.46088 | 37961 ft | 393 kts | 225° |
| 2026-05-06 08:30 | 55.88731 | 17.39839 | 37965 ft | 393 kts | 225° |
| 2026-05-06 08:30 | 55.84535 | 17.33607 | 37960 ft | 394 kts | 222° |
| 2026-05-06 08:31 | 55.79999 | 17.27988 | 37952 ft | 398 kts | 216° |
| 2026-05-06 08:31 | 55.75113 | 17.23312 | 37944 ft | 402 kts | 210° |
| 2026-05-06 08:32 | 55.69877 | 17.19624 | 37941 ft | 407 kts | 204° |
| 2026-05-06 08:32 | 55.64484 | 17.16497 | 37939 ft | 406 kts | 205° |
| 2026-05-06 08:33 | 55.59287 | 17.12787 | 37937 ft | 403 kts | 208° |
| 2026-05-06 08:33 | 55.54125 | 17.09002 | 37935 ft | 403 kts | 207° |
| 2026-05-06 08:34 | 55.46368 | 17.03339 | 37937 ft | 403 kts | 207° |
| 2026-05-06 08:35 | 55.41196 | 16.99576 | 37935 ft | 403 kts | 207° |
| 2026-05-06 08:35 | 55.36025 | 16.95818 | 37932 ft | 403 kts | 207° |
| 2026-05-06 08:36 | 55.30838 | 16.92057 | 37925 ft | 403 kts | 207° |
| 2026-05-06 08:36 | 55.25659 | 16.88311 | 37917 ft | 403 kts | 207° |
| 2026-05-06 08:37 | 55.20482 | 16.84577 | 37913 ft | 403 kts | 207° |
| 2026-05-06 08:37 | 55.15299 | 16.80849 | 37910 ft | 403 kts | 207° |
| 2026-05-06 08:38 | 55.10106 | 16.77126 | 37907 ft | 403 kts | 207° |
| 2026-05-06 08:38 | 55.05011 | 16.73482 | 37905 ft | 403 kts | 207° |
| 2026-05-06 08:39 | 54.99828 | 16.69784 | 37900 ft | 403 kts | 207° |
| 2026-05-06 08:39 | 54.94647 | 16.66099 | 37894 ft | 403 kts | 207° |
| 2026-05-06 08:40 | 54.89441 | 16.62407 | 37890 ft | 403 kts | 207° |
| 2026-05-06 08:40 | 54.84259 | 16.58742 | 37887 ft | 403 kts | 207° |
| 2026-05-06 08:41 | 54.79074 | 16.55086 | 37881 ft | 403 kts | 207° |
| 2026-05-06 08:41 | 54.73883 | 16.51436 | 37876 ft | 403 kts | 207° |
| 2026-05-06 08:42 | 54.68697 | 16.47799 | 37873 ft | 403 kts | 207° |
| 2026-05-06 08:42 | 54.63491 | 16.44156 | 37872 ft | 403 kts | 206° |
| 2026-05-06 08:43 | 54.58311 | 16.40541 | 37871 ft | 403 kts | 206° |
| 2026-05-06 08:43 | 54.53118 | 16.36928 | 37871 ft | 402 kts | 206° |
| 2026-05-06 08:44 | 54.47938 | 16.33335 | 37870 ft | 402 kts | 205° |
| 2026-05-06 08:44 | 54.42742 | 16.29741 | 37868 ft | 402 kts | 205° |
| 2026-05-06 08:45 | 54.37564 | 16.26169 | 37865 ft | 402 kts | 205° |
| 2026-05-06 08:45 | 54.32366 | 16.22592 | 37860 ft | 402 kts | 205° |
| 2026-05-06 08:46 | 54.27187 | 16.19039 | 37853 ft | 402 kts | 205° |
| 2026-05-06 08:46 | 54.22003 | 16.15492 | 37846 ft | 401 kts | 205° |
| 2026-05-06 08:47 | 54.16829 | 16.11962 | 37840 ft | 402 kts | 205° |
| 2026-05-06 08:47 | 54.11646 | 16.08435 | 37836 ft | 402 kts | 205° |
| 2026-05-06 08:48 | 54.06488 | 16.04933 | 37833 ft | 402 kts | 205° |
| 2026-05-06 08:48 | 54.01305 | 16.01425 | 37830 ft | 402 kts | 205° |
| 2026-05-06 08:49 | 53.96093 | 15.97906 | 37830 ft | 402 kts | 205° |
| 2026-05-06 08:49 | 53.90883 | 15.94401 | 37829 ft | 402 kts | 205° |
| 2026-05-06 08:50 | 53.85699 | 15.90921 | 37826 ft | 402 kts | 205° |
| 2026-05-06 08:50 | 53.80504 | 15.87443 | 37821 ft | 402 kts | 205° |
| 2026-05-06 08:51 | 53.75317 | 15.83980 | 37818 ft | 402 kts | 205° |
| 2026-05-06 08:51 | 53.70122 | 15.80514 | 37814 ft | 402 kts | 205° |
| 2026-05-06 08:52 | 53.64956 | 15.77079 | 37811 ft | 402 kts | 205° |
| 2026-05-06 08:52 | 53.59753 | 15.73630 | 37807 ft | 402 kts | 205° |
| 2026-05-06 08:53 | 53.54565 | 15.70199 | 37805 ft | 402 kts | 205° |
| 2026-05-06 08:53 | 53.49352 | 15.66763 | 37804 ft | 402 kts | 205° |
| 2026-05-06 08:54 | 53.44163 | 15.63351 | 37803 ft | 403 kts | 205° |
| 2026-05-06 08:54 | 53.38968 | 15.59945 | 37802 ft | 403 kts | 204° |
| 2026-05-06 08:55 | 53.33756 | 15.56537 | 37802 ft | 403 kts | 204° |
| 2026-05-06 08:55 | 53.28534 | 15.53131 | 37802 ft | 404 kts | 204° |
| 2026-05-06 08:56 | 53.23316 | 15.49737 | 37799 ft | 404 kts | 204° |
| 2026-05-06 08:56 | 53.18082 | 15.46342 | 37795 ft | 404 kts | 204° |
| 2026-05-06 08:57 | 53.12841 | 15.42951 | 37792 ft | 405 kts | 204° |
| 2026-05-06 08:57 | 53.07623 | 15.39584 | 37790 ft | 405 kts | 204° |
| 2026-05-06 08:58 | 53.02356 | 15.36193 | 37787 ft | 406 kts | 204° |
| 2026-05-06 08:58 | 52.97083 | 15.32808 | 37784 ft | 406 kts | 203° |
| 2026-05-06 08:59 | 52.91790 | 15.29419 | 37781 ft | 407 kts | 203° |
| 2026-05-06 08:59 | 52.86501 | 15.26041 | 37779 ft | 407 kts | 203° |
| 2026-05-06 09:00 | 52.81240 | 15.22690 | 37776 ft | 407 kts | 203° |
| 2026-05-06 09:00 | 52.75938 | 15.19321 | 37773 ft | 407 kts | 203° |
| 2026-05-06 09:01 | 52.70672 | 15.15986 | 37771 ft | 407 kts | 203° |
| 2026-05-06 09:01 | 52.65391 | 15.12649 | 37769 ft | 408 kts | 203° |
| 2026-05-06 09:02 | 52.60086 | 15.09304 | 37769 ft | 408 kts | 203° |
| 2026-05-06 09:02 | 52.54791 | 15.05975 | 37770 ft | 408 kts | 202° |
| 2026-05-06 09:03 | 52.49519 | 15.02669 | 37769 ft | 408 kts | 202° |
| 2026-05-06 09:03 | 52.44233 | 14.99362 | 37768 ft | 408 kts | 202° |
| 2026-05-06 09:04 | 52.38913 | 14.96041 | 37767 ft | 408 kts | 202° |
| 2026-05-06 09:04 | 52.33582 | 14.92719 | 37765 ft | 409 kts | 202° |
| 2026-05-06 09:05 | 52.28295 | 14.89434 | 37763 ft | 409 kts | 202° |
| 2026-05-06 09:05 | 52.22981 | 14.86143 | 37761 ft | 409 kts | 202° |
| 2026-05-06 09:06 | 52.17674 | 14.82863 | 37760 ft | 409 kts | 202° |
| 2026-05-06 09:06 | 52.12361 | 14.79589 | 37760 ft | 408 kts | 202° |
| 2026-05-06 09:07 | 52.07080 | 14.76186 | 37760 ft | 408 kts | 205° |
| 2026-05-06 09:07 | 52.02037 | 14.72030 | 37760 ft | 407 kts | 211° |
| 2026-05-06 09:08 | 51.97149 | 14.67465 | 37762 ft | 407 kts | 211° |
| 2026-05-06 09:08 | 51.92269 | 14.62937 | 37758 ft | 407 kts | 211° |
| 2026-05-06 09:09 | 51.87365 | 14.58389 | 37756 ft | 407 kts | 210° |
| 2026-05-06 09:09 | 51.82455 | 14.53851 | 37763 ft | 407 kts | 210° |
| 2026-05-06 09:10 | 51.77501 | 14.49278 | 37768 ft | 407 kts | 210° |
| 2026-05-06 09:10 | 51.72581 | 14.44746 | 37769 ft | 407 kts | 210° |
| 2026-05-06 09:11 | 51.67668 | 14.40228 | 37771 ft | 407 kts | 210° |
| 2026-05-06 09:11 | 51.62778 | 14.35743 | 37621 ft | 408 kts | 210° |
| 2026-05-06 09:12 | 51.57855 | 14.31238 | 37527 ft | 408 kts | 210° |
| 2026-05-06 09:12 | 51.52917 | 14.26732 | 37665 ft | 408 kts | 210° |
| 2026-05-06 09:13 | 51.47855 | 14.22552 | 37762 ft | 413 kts | 207° |
| 2026-05-06 09:13 | 51.42717 | 14.18467 | 37785 ft | 415 kts | 207° |
| 2026-05-06 09:14 | 51.37559 | 14.14373 | 37788 ft | 415 kts | 207° |
| 2026-05-06 09:14 | 51.32410 | 14.10299 | 37782 ft | 415 kts | 207° |
| 2026-05-06 09:15 | 51.27219 | 14.06203 | 37779 ft | 414 kts | 207° |
| 2026-05-06 09:15 | 51.22062 | 14.02146 | 37781 ft | 415 kts | 207° |
| 2026-05-06 09:16 | 51.16886 | 13.98084 | 37782 ft | 414 kts | 207° |
| 2026-05-06 09:16 | 51.11694 | 13.94022 | 37771 ft | 414 kts | 207° |
| 2026-05-06 09:17 | 51.06556 | 13.90010 | 37564 ft | 415 kts | 207° |
| 2026-05-06 09:17 | 51.03960 | 13.87987 | 37359 ft | 415 kts | 207° |
| 2026-05-06 09:17 | 51.01380 | 13.85979 | 37161 ft | 414 kts | 207° |
| 2026-05-06 09:17 | 50.98786 | 13.83962 | 36962 ft | 414 kts | 207° |
| 2026-05-06 09:18 | 50.96203 | 13.81956 | 36761 ft | 413 kts | 207° |
| 2026-05-06 09:18 | 50.93640 | 13.79968 | 36561 ft | 412 kts | 207° |
| 2026-05-06 09:18 | 50.91085 | 13.77989 | 36358 ft | 411 kts | 207° |
| 2026-05-06 09:18 | 50.88508 | 13.75994 | 36154 ft | 411 kts | 207° |
| 2026-05-06 09:19 | 50.85964 | 13.74027 | 35950 ft | 410 kts | 207° |
| 2026-05-06 09:19 | 50.83395 | 13.72042 | 35744 ft | 410 kts | 207° |
| 2026-05-06 09:19 | 50.80819 | 13.70054 | 35539 ft | 409 kts | 207° |
| 2026-05-06 09:19 | 50.78284 | 13.68102 | 35336 ft | 409 kts | 207° |
| 2026-05-06 09:20 | 50.75709 | 13.66124 | 35129 ft | 408 kts | 207° |
| 2026-05-06 09:20 | 50.73138 | 13.64234 | 34924 ft | 408 kts | 205° |
| 2026-05-06 09:20 | 50.70522 | 13.62580 | 34722 ft | 409 kts | 202° |
| 2026-05-06 09:20 | 50.67856 | 13.61160 | 34519 ft | 408 kts | 199° |
| 2026-05-06 09:21 | 50.65144 | 13.59847 | 34313 ft | 407 kts | 200° |
| 2026-05-06 09:21 | 50.62441 | 13.58521 | 34096 ft | 406 kts | 200° |
| 2026-05-06 09:21 | 50.59740 | 13.57196 | 33861 ft | 406 kts | 200° |
| 2026-05-06 09:22 | 50.54386 | 13.54580 | 33766 ft | 406 kts | 200° |
| 2026-05-06 09:22 | 50.48955 | 13.51939 | 33774 ft | 406 kts | 200° |
| 2026-05-06 09:23 | 50.43557 | 13.49323 | 33784 ft | 406 kts | 200° |
| 2026-05-06 09:23 | 50.38162 | 13.46715 | 33809 ft | 406 kts | 200° |
| 2026-05-06 09:24 | 50.32752 | 13.44106 | 33819 ft | 405 kts | 200° |
| 2026-05-06 09:24 | 50.27391 | 13.41526 | 33814 ft | 404 kts | 200° |
| 2026-05-06 09:25 | 50.22026 | 13.38948 | 33810 ft | 404 kts | 200° |
| 2026-05-06 09:25 | 50.16670 | 13.36379 | 33808 ft | 404 kts | 200° |
| 2026-05-06 09:26 | 50.11299 | 13.33814 | 33810 ft | 404 kts | 199° |
| 2026-05-06 09:26 | 50.05938 | 13.31220 | 33686 ft | 401 kts | 200° |
| 2026-05-06 09:26 | 50.03285 | 13.29905 | 33368 ft | 394 kts | 200° |
| 2026-05-06 09:27 | 50.00695 | 13.28617 | 33055 ft | 393 kts | 200° |
| 2026-05-06 09:27 | 49.98097 | 13.27324 | 32720 ft | 393 kts | 200° |
| 2026-05-06 09:27 | 49.95513 | 13.26042 | 32346 ft | 393 kts | 200° |
| 2026-05-06 09:27 | 49.92912 | 13.24754 | 31969 ft | 393 kts | 200° |
| 2026-05-06 09:28 | 49.90321 | 13.23473 | 31593 ft | 392 kts | 200° |
| 2026-05-06 09:28 | 49.87713 | 13.22185 | 31206 ft | 392 kts | 200° |
| 2026-05-06 09:28 | 49.85115 | 13.20902 | 30801 ft | 392 kts | 200° |
| 2026-05-06 09:28 | 49.82525 | 13.19625 | 30409 ft | 392 kts | 200° |
| 2026-05-06 09:29 | 49.79920 | 13.18341 | 30035 ft | 393 kts | 200° |
| 2026-05-06 09:29 | 49.77331 | 13.17068 | 29646 ft | 389 kts | 200° |
| 2026-05-06 09:29 | 49.74772 | 13.15811 | 29229 ft | 387 kts | 200° |
| 2026-05-06 09:29 | 49.72192 | 13.14544 | 28850 ft | 385 kts | 200° |
| 2026-05-06 09:30 | 49.69666 | 13.13304 | 28737 ft | 386 kts | 200° |
| 2026-05-06 09:30 | 49.64510 | 13.10777 | 28703 ft | 389 kts | 200° |
| 2026-05-06 09:31 | 49.59364 | 13.08261 | 28705 ft | 392 kts | 200° |
| 2026-05-06 09:31 | 49.54132 | 13.05708 | 28813 ft | 393 kts | 200° |
| 2026-05-06 09:32 | 49.48914 | 13.03171 | 28870 ft | 392 kts | 200° |
| 2026-05-06 09:32 | 49.43750 | 13.00613 | 28856 ft | 390 kts | 202° |
| 2026-05-06 09:33 | 49.38752 | 12.97461 | 28848 ft | 389 kts | 207° |
| 2026-05-06 09:33 | 49.33869 | 12.93898 | 28837 ft | 389 kts | 207° |
| 2026-05-06 09:34 | 49.28979 | 12.90348 | 28831 ft | 389 kts | 207° |
| 2026-05-06 09:34 | 49.24097 | 12.86804 | 28769 ft | 384 kts | 207° |
| 2026-05-06 09:34 | 49.21699 | 12.85067 | 28398 ft | 381 kts | 207° |
| 2026-05-06 09:35 | 49.19328 | 12.83347 | 27886 ft | 380 kts | 207° |
| 2026-05-06 09:35 | 49.16937 | 12.81614 | 27363 ft | 377 kts | 207° |
| 2026-05-06 09:35 | 49.14576 | 12.79902 | 26789 ft | 373 kts | 207° |
| 2026-05-06 09:35 | 49.12240 | 12.78210 | 26203 ft | 370 kts | 207° |
| 2026-05-06 09:36 | 49.09913 | 12.76528 | 25601 ft | 368 kts | 207° |
| 2026-05-06 09:36 | 49.07621 | 12.74874 | 24954 ft | 365 kts | 207° |
| 2026-05-06 09:36 | 49.05345 | 12.73235 | 24285 ft | 362 kts | 207° |
| 2026-05-06 09:36 | 49.03069 | 12.71598 | 23619 ft | 360 kts | 207° |
| 2026-05-06 09:37 | 49.00822 | 12.69983 | 22968 ft | 357 kts | 207° |
| 2026-05-06 09:37 | 48.98598 | 12.68385 | 22343 ft | 355 kts | 207° |
| 2026-05-06 09:37 | 48.96395 | 12.66803 | 21745 ft | 353 kts | 206° |
| 2026-05-06 09:37 | 48.94193 | 12.65224 | 21150 ft | 350 kts | 206° |
| 2026-05-06 09:38 | 48.91984 | 12.63641 | 20561 ft | 348 kts | 206° |
| 2026-05-06 09:38 | 48.89800 | 12.62078 | 19994 ft | 346 kts | 206° |
| 2026-05-06 09:38 | 48.87641 | 12.60539 | 19452 ft | 344 kts | 206° |
| 2026-05-06 09:38 | 48.85500 | 12.59013 | 18995 ft | 341 kts | 206° |
| 2026-05-06 09:39 | 48.83357 | 12.57490 | 18585 ft | 341 kts | 206° |
| 2026-05-06 09:39 | 48.81199 | 12.55958 | 18179 ft | 341 kts | 206° |
| 2026-05-06 09:39 | 48.79065 | 12.54443 | 17784 ft | 339 kts | 206° |
| 2026-05-06 09:39 | 48.76925 | 12.52974 | 17390 ft | 338 kts | 204° |
| 2026-05-06 09:40 | 48.74740 | 12.51694 | 16997 ft | 336 kts | 201° |
| 2026-05-06 09:40 | 48.72524 | 12.50499 | 16602 ft | 335 kts | 201° |
| 2026-05-06 09:40 | 48.68176 | 12.48142 | 15825 ft | 331 kts | 201° |
| 2026-05-06 09:41 | 48.66023 | 12.46980 | 15439 ft | 330 kts | 201° |
| 2026-05-06 09:41 | 48.63880 | 12.45757 | 15044 ft | 327 kts | 206° |
| 2026-05-06 09:41 | 48.62083 | 12.43736 | 14603 ft | 325 kts | 227° |
| 2026-05-06 09:41 | 48.60955 | 12.40857 | 14082 ft | 326 kts | 248° |
| 2026-05-06 09:42 | 48.60341 | 12.37535 | 13583 ft | 325 kts | 254° |
| 2026-05-06 09:42 | 48.59851 | 12.34253 | 13078 ft | 323 kts | 254° |
| 2026-05-06 09:42 | 48.59375 | 12.30943 | 12684 ft | 322 kts | 254° |
| 2026-05-06 09:42 | 48.58905 | 12.27671 | 12303 ft | 321 kts | 254° |
| 2026-05-06 09:43 | 48.58432 | 12.24376 | 11929 ft | 319 kts | 254° |
| 2026-05-06 09:43 | 48.57964 | 12.21113 | 11624 ft | 317 kts | 254° |
| 2026-05-06 09:43 | 48.57497 | 12.17874 | 11350 ft | 316 kts | 254° |
| 2026-05-06 09:43 | 48.57032 | 12.14645 | 11180 ft | 316 kts | 254° |
| 2026-05-06 09:44 | 48.56560 | 12.11384 | 11001 ft | 316 kts | 254° |
| 2026-05-06 09:44 | 48.56089 | 12.08133 | 10822 ft | 315 kts | 254° |
| 2026-05-06 09:44 | 48.55615 | 12.04895 | 10649 ft | 316 kts | 255° |
| 2026-05-06 09:44 | 48.55142 | 12.01690 | 10469 ft | 310 kts | 255° |
| 2026-05-06 09:45 | 48.54690 | 11.98611 | 10289 ft | 297 kts | 254° |
| 2026-05-06 09:45 | 48.54247 | 11.95585 | 10107 ft | 287 kts | 254° |
| 2026-05-06 09:45 | 48.53824 | 11.92716 | 9930 ft | 279 kts | 254° |
| 2026-05-06 09:45 | 48.53397 | 11.89844 | 9754 ft | 278 kts | 254° |
| 2026-05-06 09:46 | 48.52976 | 11.86993 | 9579 ft | 279 kts | 257° |
| 2026-05-06 09:46 | 48.52834 | 11.84078 | 9403 ft | 282 kts | 267° |
| 2026-05-06 09:46 | 48.52875 | 11.81126 | 9215 ft | 281 kts | 269° |
| 2026-05-06 09:46 | 48.52943 | 11.78194 | 8850 ft | 281 kts | 269° |
| 2026-05-06 09:47 | 48.53010 | 11.75236 | 8447 ft | 281 kts | 269° |
| 2026-05-06 09:47 | 48.53070 | 11.72307 | 8082 ft | 281 kts | 269° |
| 2026-05-06 09:47 | 48.53123 | 11.69333 | 7726 ft | 280 kts | 269° |
| 2026-05-06 09:47 | 48.53167 | 11.66380 | 7373 ft | 279 kts | 269° |
| 2026-05-06 09:48 | 48.53201 | 11.63477 | 7025 ft | 279 kts | 269° |
| 2026-05-06 09:48 | 48.53228 | 11.60572 | 6680 ft | 278 kts | 269° |
| 2026-05-06 09:48 | 48.53249 | 11.57645 | 6320 ft | 277 kts | 269° |
| 2026-05-06 09:48 | 48.53169 | 11.54789 | 5958 ft | 275 kts | 258° |
| 2026-05-06 09:49 | 48.52440 | 11.52188 | 5605 ft | 272 kts | 238° |
| 2026-05-06 09:49 | 48.51400 | 11.49778 | 5266 ft | 272 kts | 235° |
| 2026-05-06 09:49 | 48.50333 | 11.47465 | 5022 ft | 270 kts | 234° |
| 2026-05-06 09:49 | 48.49240 | 11.45129 | 5007 ft | 272 kts | 234° |
| 2026-05-06 09:50 | 48.48142 | 11.42795 | 5005 ft | 273 kts | 234° |
| 2026-05-06 09:50 | 48.47042 | 11.40460 | 5004 ft | 273 kts | 234° |
| 2026-05-06 09:50 | 48.45962 | 11.38175 | 4999 ft | 267 kts | 233° |
| 2026-05-06 09:50 | 48.44714 | 11.36210 | 4992 ft | 250 kts | 219° |
| 2026-05-06 09:51 | 48.43295 | 11.34838 | 4981 ft | 240 kts | 198° |
| 2026-05-06 09:51 | 48.41659 | 11.34622 | 4993 ft | 240 kts | 167° |
| 2026-05-06 09:51 | 48.40164 | 11.35705 | 5007 ft | 240 kts | 141° |
| 2026-05-06 09:51 | 48.38921 | 11.37387 | 5008 ft | 240 kts | 135° |
| 2026-05-06 09:52 | 48.37751 | 11.39141 | 5007 ft | 240 kts | 134° |
| 2026-05-06 09:52 | 48.36578 | 11.40934 | 5019 ft | 239 kts | 134° |
| 2026-05-06 09:52 | 48.35480 | 11.42805 | 5025 ft | 239 kts | 122° |
| 2026-05-06 09:52 | 48.34690 | 11.44994 | 5033 ft | 238 kts | 112° |
| 2026-05-06 09:53 | 48.34232 | 11.47339 | 5032 ft | 236 kts | 98° |
| 2026-05-06 09:53 | 48.34163 | 11.49758 | 4945 ft | 228 kts | 86° |
| 2026-05-06 09:53 | 48.34348 | 11.52107 | 4665 ft | 227 kts | 81° |
| 2026-05-06 09:53 | 48.34590 | 11.54450 | 4340 ft | 228 kts | 81° |
| 2026-05-06 09:54 | 48.34801 | 11.56801 | 4017 ft | 225 kts | 82° |
| 2026-05-06 09:54 | 48.34973 | 11.59057 | 3825 ft | 212 kts | 83° |
| 2026-05-06 09:54 | 48.35124 | 11.61166 | 3518 ft | 197 kts | 83° |
| 2026-05-06 09:54 | 48.35267 | 11.63160 | 3238 ft | 183 kts | 83° |
| 2026-05-06 09:55 | 48.35398 | 11.64973 | 3030 ft | 169 kts | 84° |
| 2026-05-06 09:55 | 48.35522 | 11.66664 | 2791 ft | 155 kts | 84° |
| 2026-05-06 09:55 | 48.35636 | 11.68212 | 2575 ft | 145 kts | 84° |
| 2026-05-06 09:55 | 48.35747 | 11.69710 | 2402 ft | 144 kts | 85° |
| 2026-05-06 09:56 | 48.35849 | 11.71194 | 2241 ft | 143 kts | 85° |
| 2026-05-06 09:56 | 48.35960 | 11.72682 | 2038 ft | 143 kts | 83° |
| 2026-05-06 09:56 | 48.36076 | 11.74156 | 1851 ft | 143 kts | 84° |
| 2026-05-06 09:56 | 48.36191 | 11.75622 | 1671 ft | 142 kts | 83° |
| 2026-05-06 09:57 | 48.36306 | 11.77108 | 1486 ft | 140 kts | 83° |
| 2026-05-06 09:57 | 48.36402 | 11.78402 | 1472 ft | 103 kts | 83° |
| 2026-05-06 09:57 | 48.36453 | 11.79162 | 1469 ft | 43 kts | 95° |
| 2026-05-06 09:57 | 48.36366 | 11.79552 | 1468 ft | 32 kts | 113° |
| 2026-05-06 09:58 | 48.36317 | 11.79720 | 1468 ft | 3 kts | 114° |
| 2026-05-06 09:58 | 48.36314 | 11.79731 | 1468 ft | 1 kts | 114° |
| 2026-05-06 09:58 | 48.36309 | 11.79746 | 1468 ft | 1 kts | 114° |
| 2026-05-06 09:58 | 48.36303 | 11.79763 | 1468 ft | 2 kts | 120° |
| 2026-05-06 09:59 | 48.36253 | 11.79788 | 1468 ft | 12 kts | 201° |
| 2026-05-06 09:59 | 48.36229 | 11.79677 | 1469 ft | 11 kts | 265° |
| 2026-05-06 09:59 | 48.36219 | 11.79544 | 1469 ft | 13 kts | 263° |
| 2026-05-06 09:59 | 48.36209 | 11.79411 | 1470 ft | 12 kts | 264° |
| 2026-05-06 10:00 | 48.36199 | 11.79278 | 1471 ft | 15 kts | 264° |
| 2026-05-06 10:00 | 48.36184 | 11.79075 | 1472 ft | 20 kts | 263° |
| 2026-05-06 10:00 | 48.36168 | 11.78873 | 1474 ft | 18 kts | 263° |
| 2026-05-06 10:00 | 48.36154 | 11.78692 | 1474 ft | 16 kts | 263° |
| 2026-05-06 10:01 | 48.36141 | 11.78525 | 1475 ft | 15 kts | 263° |
| 2026-05-06 10:01 | 48.36129 | 11.78369 | 1475 ft | 14 kts | 264° |
| 2026-05-06 10:01 | 48.36118 | 11.78223 | 1475 ft | 13 kts | 264° |
| 2026-05-06 10:01 | 48.36107 | 11.78074 | 1476 ft | 15 kts | 263° |
| 2026-05-06 10:02 | 48.36093 | 11.77901 | 1476 ft | 16 kts | 263° |
| 2026-05-06 10:02 | 48.36081 | 11.77736 | 1477 ft | 15 kts | 264° |
| 2026-05-06 10:02 | 48.36016 | 11.77664 | 1477 ft | 12 kts | 171° |
| 2026-05-06 10:02 | 48.35932 | 11.77681 | 1478 ft | 10 kts | 173° |
| 2026-05-06 10:03 | 48.35862 | 11.77693 | 1478 ft | 9 kts | 174° |
| 2026-05-06 10:03 | 48.35789 | 11.77705 | 1478 ft | 11 kts | 173° |
| 2026-05-06 10:03 | 48.35703 | 11.77721 | 1479 ft | 12 kts | 173° |
| 2026-05-06 10:03 | 48.35615 | 11.77736 | 1480 ft | 13 kts | 174° |
| 2026-05-06 10:04 | 48.35513 | 11.77754 | 1481 ft | 15 kts | 173° |
| 2026-05-06 10:04 | 48.35415 | 11.77771 | 1481 ft | 13 kts | 173° |
| 2026-05-06 10:04 | 48.35326 | 11.77786 | 1482 ft | 13 kts | 174° |
| 2026-05-06 10:04 | 48.35232 | 11.77803 | 1482 ft | 13 kts | 171° |
| 2026-05-06 10:05 | 48.35183 | 11.77888 | 1483 ft | 11 kts | 87° |
| 2026-05-06 10:05 | 48.35191 | 11.78000 | 1483 ft | 10 kts | 83° |
| 2026-05-06 10:05 | 48.35199 | 11.78103 | 1483 ft | 9 kts | 83° |
| 2026-05-06 10:05 | 48.35175 | 11.78186 | 1483 ft | 9 kts | 155° |
| 2026-05-06 10:06 | 48.35123 | 11.78218 | 1483 ft | 7 kts | 115° |
| 2026-05-06 10:06 | 48.35126 | 11.78289 | 1482 ft | 4 kts | 82° |
| 2026-05-06 10:06 | 48.35130 | 11.78331 | 1482 ft | 2 kts | 83° |
| 2026-05-06 10:06 | 48.35130 | 11.78336 | 1482 ft | 0 kts | 83° |